sensor_id;sensor_type;location;lat;lon;timestamp;P1;durP1;ratioP1;P2;durP2;ratioP2
21593;SDS011;10959;51.328;7.322;2023-04-25T00:01:21;9.57;;;5.07;;
21593;SDS011;10959;51.328;7.322;2023-04-25T00:03:47;11.30;;;4.93;;
21593;SDS011;10959;51.328;7.322;2023-04-25T00:06:15;13.97;;;5.50;;
21593;SDS011;10959;51.328;7.322;2023-04-25T00:08:43;11.73;;;5.63;;
21593;SDS011;10959;51.328;7.322;2023-04-25T00:11:09;11.20;;;5.20;;
21593;SDS011;10959;51.328;7.322;2023-04-25T00:13:36;7.80;;;5.00;;
21593;SDS011;10959;51.328;7.322;2023-04-25T00:16:02;10.80;;;5.17;;
21593;SDS011;10959;51.328;7.322;2023-04-25T00:18:29;8.03;;;4.83;;
21593;SDS011;10959;51.328;7.322;2023-04-25T00:20:58;14.57;;;5.13;;
21593;SDS011;10959;51.328;7.322;2023-04-25T00:23:26;11.27;;;5.43;;
21593;SDS011;10959;51.328;7.322;2023-04-25T00:25:52;8.90;;;4.73;;
21593;SDS011;10959;51.328;7.322;2023-04-25T00:28:19;9.87;;;4.70;;
21593;SDS011;10959;51.328;7.322;2023-04-25T00:30:45;10.70;;;5.30;;
21593;SDS011;10959;51.328;7.322;2023-04-25T00:33:12;11.23;;;4.90;;
21593;SDS011;10959;51.328;7.322;2023-04-25T00:35:38;9.13;;;5.00;;
21593;SDS011;10959;51.328;7.322;2023-04-25T00:38:05;8.57;;;5.07;;
21593;SDS011;10959;51.328;7.322;2023-04-25T00:40:33;10.30;;;5.50;;
21593;SDS011;10959;51.328;7.322;2023-04-25T00:42:59;9.77;;;4.87;;
21593;SDS011;10959;51.328;7.322;2023-04-25T00:45:27;11.03;;;5.13;;
21593;SDS011;10959;51.328;7.322;2023-04-25T00:47:55;11.90;;;5.57;;
21593;SDS011;10959;51.328;7.322;2023-04-25T00:50:22;10.33;;;5.83;;
21593;SDS011;10959;51.328;7.322;2023-04-25T00:52:48;11.90;;;6.13;;
21593;SDS011;10959;51.328;7.322;2023-04-25T00:55:15;12.03;;;6.37;;
21593;SDS011;10959;51.328;7.322;2023-04-25T00:57:43;11.03;;;5.67;;
21593;SDS011;10959;51.328;7.322;2023-04-25T01:00:10;10.90;;;5.83;;
21593;SDS011;10959;51.328;7.322;2023-04-25T01:02:38;10.80;;;6.27;;
21593;SDS011;10959;51.328;7.322;2023-04-25T01:05:05;10.23;;;5.50;;
21593;SDS011;10959;51.328;7.322;2023-04-25T01:07:32;8.50;;;5.77;;
21593;SDS011;10959;51.328;7.322;2023-04-25T01:10:00;10.63;;;6.00;;
21593;SDS011;10959;51.328;7.322;2023-04-25T01:12:27;10.53;;;5.73;;
21593;SDS011;10959;51.328;7.322;2023-04-25T01:14:56;8.67;;;5.77;;
21593;SDS011;10959;51.328;7.322;2023-04-25T01:17:22;7.20;;;5.57;;
21593;SDS011;10959;51.328;7.322;2023-04-25T01:19:49;9.63;;;6.00;;
21593;SDS011;10959;51.328;7.322;2023-04-25T01:22:17;9.30;;;5.93;;
21593;SDS011;10959;51.328;7.322;2023-04-25T01:24:44;9.53;;;6.63;;
21593;SDS011;10959;51.328;7.322;2023-04-25T01:27:11;9.30;;;6.27;;
21593;SDS011;10959;51.328;7.322;2023-04-25T01:29:38;8.60;;;6.40;;
21593;SDS011;10959;51.328;7.322;2023-04-25T01:32:05;12.07;;;5.80;;
21593;SDS011;10959;51.328;7.322;2023-04-25T01:34:32;10.27;;;5.57;;
21593;SDS011;10959;51.328;7.322;2023-04-25T01:36:59;12.47;;;6.40;;
21593;SDS011;10959;51.328;7.322;2023-04-25T01:39:28;12.37;;;6.67;;
21593;SDS011;10959;51.328;7.322;2023-04-25T01:41:54;9.77;;;6.10;;
21593;SDS011;10959;51.328;7.322;2023-04-25T01:44:21;10.03;;;6.97;;
21593;SDS011;10959;51.328;7.322;2023-04-25T01:46:48;10.73;;;6.43;;
21593;SDS011;10959;51.328;7.322;2023-04-25T01:49:14;9.93;;;7.83;;
21593;SDS011;10959;51.328;7.322;2023-04-25T01:51:41;11.23;;;7.17;;
21593;SDS011;10959;51.328;7.322;2023-04-25T01:54:07;10.77;;;7.83;;
21593;SDS011;10959;51.328;7.322;2023-04-25T01:56:37;14.40;;;8.33;;
21593;SDS011;10959;51.328;7.322;2023-04-25T01:59:04;12.87;;;8.60;;
21593;SDS011;10959;51.328;7.322;2023-04-25T02:01:31;12.27;;;8.30;;
21593;SDS011;10959;51.328;7.322;2023-04-25T02:03:57;15.53;;;9.87;;
21593;SDS011;10959;51.328;7.322;2023-04-25T02:06:24;12.73;;;9.20;;
21593;SDS011;10959;51.328;7.322;2023-04-25T02:08:50;15.30;;;9.77;;
21593;SDS011;10959;51.328;7.322;2023-04-25T02:11:17;16.53;;;10.03;;
21593;SDS011;10959;51.328;7.322;2023-04-25T02:13:44;13.70;;;9.10;;
21593;SDS011;10959;51.328;7.322;2023-04-25T02:16:11;12.63;;;9.30;;
21593;SDS011;10959;51.328;7.322;2023-04-25T02:18:38;12.43;;;9.63;;
21593;SDS011;10959;51.328;7.322;2023-04-25T02:21:04;14.70;;;10.70;;
21593;SDS011;10959;51.328;7.322;2023-04-25T02:23:31;14.77;;;10.83;;
21593;SDS011;10959;51.328;7.322;2023-04-25T02:29:20;14.23;;;11.47;;
21593;SDS011;10959;51.328;7.322;2023-04-25T02:31:46;15.93;;;10.40;;
21593;SDS011;10959;51.328;7.322;2023-04-25T02:34:13;13.67;;;10.60;;
21593;SDS011;10959;51.328;7.322;2023-04-25T02:36:39;19.43;;;10.20;;
21593;SDS011;10959;51.328;7.322;2023-04-25T02:39:06;13.30;;;10.90;;
21593;SDS011;10959;51.328;7.322;2023-04-25T02:41:32;16.53;;;10.93;;
21593;SDS011;10959;51.328;7.322;2023-04-25T02:43:58;15.63;;;10.67;;
21593;SDS011;10959;51.328;7.322;2023-04-25T02:46:26;11.83;;;9.20;;
21593;SDS011;10959;51.328;7.322;2023-04-25T02:48:53;13.63;;;9.93;;
21593;SDS011;10959;51.328;7.322;2023-04-25T02:51:19;14.13;;;9.77;;
21593;SDS011;10959;51.328;7.322;2023-04-25T02:53:45;14.93;;;10.93;;
21593;SDS011;10959;51.328;7.322;2023-04-25T02:56:12;13.30;;;9.47;;
21593;SDS011;10959;51.328;7.322;2023-04-25T02:58:38;12.90;;;9.83;;
21593;SDS011;10959;51.328;7.322;2023-04-25T03:01:05;14.40;;;8.83;;
21593;SDS011;10959;51.328;7.322;2023-04-25T03:03:33;12.60;;;10.43;;
21593;SDS011;10959;51.328;7.322;2023-04-25T03:05:59;14.93;;;10.47;;
21593;SDS011;10959;51.328;7.322;2023-04-25T03:08:25;13.10;;;9.30;;
21593;SDS011;10959;51.328;7.322;2023-04-25T03:10:57;14.80;;;10.43;;
21593;SDS011;10959;51.328;7.322;2023-04-25T03:13:23;16.30;;;9.97;;
21593;SDS011;10959;51.328;7.322;2023-04-25T03:15:50;13.43;;;8.97;;
21593;SDS011;10959;51.328;7.322;2023-04-25T03:18:17;14.30;;;8.90;;
21593;SDS011;10959;51.328;7.322;2023-04-25T03:20:44;13.00;;;8.47;;
21593;SDS011;10959;51.328;7.322;2023-04-25T03:23:11;14.30;;;8.13;;
21593;SDS011;10959;51.328;7.322;2023-04-25T03:25:38;12.10;;;8.90;;
21593;SDS011;10959;51.328;7.322;2023-04-25T03:28:04;11.57;;;8.73;;
21593;SDS011;10959;51.328;7.322;2023-04-25T03:30:31;13.70;;;10.00;;
21593;SDS011;10959;51.328;7.322;2023-04-25T03:32:57;17.00;;;10.40;;
21593;SDS011;10959;51.328;7.322;2023-04-25T03:35:24;17.03;;;10.80;;
21593;SDS011;10959;51.328;7.322;2023-04-25T03:37:52;15.93;;;10.73;;
21593;SDS011;10959;51.328;7.322;2023-04-25T03:40:18;15.90;;;10.97;;
21593;SDS011;10959;51.328;7.322;2023-04-25T03:42:45;15.87;;;11.60;;
21593;SDS011;10959;51.328;7.322;2023-04-25T03:45:11;11.93;;;9.60;;
21593;SDS011;10959;51.328;7.322;2023-04-25T03:47:37;13.33;;;9.33;;
21593;SDS011;10959;51.328;7.322;2023-04-25T03:50:04;8.67;;;7.33;;
21593;SDS011;10959;51.328;7.322;2023-04-25T03:52:32;11.70;;;7.70;;
21593;SDS011;10959;51.328;7.322;2023-04-25T03:54:59;9.73;;;7.87;;
21593;SDS011;10959;51.328;7.322;2023-04-25T03:57:26;10.40;;;7.97;;
21593;SDS011;10959;51.328;7.322;2023-04-25T03:59:52;11.70;;;8.70;;
21593;SDS011;10959;51.328;7.322;2023-04-25T04:02:19;13.83;;;9.33;;
21593;SDS011;10959;51.328;7.322;2023-04-25T04:04:45;13.87;;;9.53;;
21593;SDS011;10959;51.328;7.322;2023-04-25T04:07:12;13.93;;;9.70;;
21593;SDS011;10959;51.328;7.322;2023-04-25T04:09:38;18.63;;;10.57;;
21593;SDS011;10959;51.328;7.322;2023-04-25T04:12:06;14.07;;;9.53;;
21593;SDS011;10959;51.328;7.322;2023-04-25T04:14:33;16.33;;;11.90;;
21593;SDS011;10959;51.328;7.322;2023-04-25T04:16:59;14.07;;;11.67;;
21593;SDS011;10959;51.328;7.322;2023-04-25T04:19:25;16.23;;;11.60;;
21593;SDS011;10959;51.328;7.322;2023-04-25T04:21:52;19.00;;;12.50;;
21593;SDS011;10959;51.328;7.322;2023-04-25T04:24:19;19.90;;;12.07;;
21593;SDS011;10959;51.328;7.322;2023-04-25T04:26:45;18.73;;;12.53;;
21593;SDS011;10959;51.328;7.322;2023-04-25T04:29:13;19.27;;;13.40;;
21593;SDS011;10959;51.328;7.322;2023-04-25T04:31:45;24.30;;;14.13;;
21593;SDS011;10959;51.328;7.322;2023-04-25T04:34:13;21.50;;;14.00;;
21593;SDS011;10959;51.328;7.322;2023-04-25T04:36:41;18.30;;;12.70;;
21593;SDS011;10959;51.328;7.322;2023-04-25T04:39:07;17.90;;;12.03;;
21593;SDS011;10959;51.328;7.322;2023-04-25T04:41:34;15.33;;;10.93;;
21593;SDS011;10959;51.328;7.322;2023-04-25T04:44:01;19.60;;;12.07;;
21593;SDS011;10959;51.328;7.322;2023-04-25T04:46:29;15.37;;;11.57;;
21593;SDS011;10959;51.328;7.322;2023-04-25T04:48:56;18.20;;;11.70;;
21593;SDS011;10959;51.328;7.322;2023-04-25T04:51:23;15.43;;;10.87;;
21593;SDS011;10959;51.328;7.322;2023-04-25T04:53:50;21.63;;;11.00;;
21593;SDS011;10959;51.328;7.322;2023-04-25T04:56:16;10.80;;;7.40;;
21593;SDS011;10959;51.328;7.322;2023-04-25T04:58:45;12.33;;;5.17;;
21593;SDS011;10959;51.328;7.322;2023-04-25T05:01:13;6.40;;;4.13;;
21593;SDS011;10959;51.328;7.322;2023-04-25T05:03:42;6.90;;;4.43;;
21593;SDS011;10959;51.328;7.322;2023-04-25T05:06:08;9.50;;;4.17;;
21593;SDS011;10959;51.328;7.322;2023-04-25T05:08:35;5.27;;;3.07;;
21593;SDS011;10959;51.328;7.322;2023-04-25T05:11:02;11.37;;;3.60;;
21593;SDS011;10959;51.328;7.322;2023-04-25T05:13:29;8.37;;;3.57;;
21593;SDS011;10959;51.328;7.322;2023-04-25T05:15:55;6.63;;;2.83;;
21593;SDS011;10959;51.328;7.322;2023-04-25T05:18:22;11.47;;;3.83;;
21593;SDS011;10959;51.328;7.322;2023-04-25T05:20:49;9.00;;;4.07;;
21593;SDS011;10959;51.328;7.322;2023-04-25T05:23:16;9.60;;;3.00;;
21593;SDS011;10959;51.328;7.322;2023-04-25T05:25:42;9.03;;;3.73;;
21593;SDS011;10959;51.328;7.322;2023-04-25T05:28:10;5.10;;;3.07;;
21593;SDS011;10959;51.328;7.322;2023-04-25T05:30:38;7.93;;;3.30;;
21593;SDS011;10959;51.328;7.322;2023-04-25T05:33:05;7.27;;;3.27;;
21593;SDS011;10959;51.328;7.322;2023-04-25T05:35:31;11.77;;;3.73;;
21593;SDS011;10959;51.328;7.322;2023-04-25T05:37:59;9.63;;;3.67;;
21593;SDS011;10959;51.328;7.322;2023-04-25T05:40:26;9.00;;;3.37;;
21593;SDS011;10959;51.328;7.322;2023-04-25T05:42:52;8.07;;;3.67;;
21593;SDS011;10959;51.328;7.322;2023-04-25T05:45:19;9.27;;;3.60;;
21593;SDS011;10959;51.328;7.322;2023-04-25T05:47:45;12.30;;;4.50;;
21593;SDS011;10959;51.328;7.322;2023-04-25T05:50:12;7.77;;;4.30;;
21593;SDS011;10959;51.328;7.322;2023-04-25T05:52:38;9.20;;;4.53;;
21593;SDS011;10959;51.328;7.322;2023-04-25T05:55:07;10.30;;;4.20;;
21593;SDS011;10959;51.328;7.322;2023-04-25T05:57:34;13.70;;;4.60;;
21593;SDS011;10959;51.328;7.322;2023-04-25T06:00:00;13.03;;;5.10;;
21593;SDS011;10959;51.328;7.322;2023-04-25T06:02:28;10.17;;;5.20;;
21593;SDS011;10959;51.328;7.322;2023-04-25T06:04:54;9.90;;;4.50;;
21593;SDS011;10959;51.328;7.322;2023-04-25T06:07:21;12.50;;;4.87;;
21593;SDS011;10959;51.328;7.322;2023-04-25T06:09:47;9.03;;;5.10;;
21593;SDS011;10959;51.328;7.322;2023-04-25T06:12:15;11.30;;;5.37;;
21593;SDS011;10959;51.328;7.322;2023-04-25T06:14:41;10.23;;;6.50;;
21593;SDS011;10959;51.328;7.322;2023-04-25T06:17:08;13.80;;;6.63;;
21593;SDS011;10959;51.328;7.322;2023-04-25T06:19:35;12.20;;;7.77;;
21593;SDS011;10959;51.328;7.322;2023-04-25T06:22:01;15.60;;;8.73;;
21593;SDS011;10959;51.328;7.322;2023-04-25T06:24:28;13.73;;;7.83;;
21593;SDS011;10959;51.328;7.322;2023-04-25T06:26:54;11.87;;;7.47;;
21593;SDS011;10959;51.328;7.322;2023-04-25T06:29:23;15.80;;;7.43;;
21593;SDS011;10959;51.328;7.322;2023-04-25T06:31:49;18.53;;;8.17;;
21593;SDS011;10959;51.328;7.322;2023-04-25T06:34:16;15.17;;;8.53;;
21593;SDS011;10959;51.328;7.322;2023-04-25T06:36:42;17.00;;;9.43;;
21593;SDS011;10959;51.328;7.322;2023-04-25T06:39:09;12.13;;;8.80;;
21593;SDS011;10959;51.328;7.322;2023-04-25T06:41:36;13.70;;;8.53;;
21593;SDS011;10959;51.328;7.322;2023-04-25T06:44:02;16.40;;;8.63;;
21593;SDS011;10959;51.328;7.322;2023-04-25T06:46:30;13.60;;;8.27;;
21593;SDS011;10959;51.328;7.322;2023-04-25T06:48:56;16.83;;;9.03;;
21593;SDS011;10959;51.328;7.322;2023-04-25T06:51:23;15.43;;;7.70;;
21593;SDS011;10959;51.328;7.322;2023-04-25T06:53:49;16.57;;;8.43;;
21593;SDS011;10959;51.328;7.322;2023-04-25T06:56:16;14.90;;;7.93;;
21593;SDS011;10959;51.328;7.322;2023-04-25T06:58:42;17.43;;;8.47;;
21593;SDS011;10959;51.328;7.322;2023-04-25T07:01:08;15.77;;;8.07;;
21593;SDS011;10959;51.328;7.322;2023-04-25T07:03:36;13.37;;;6.60;;
21593;SDS011;10959;51.328;7.322;2023-04-25T07:06:03;14.80;;;6.50;;
21593;SDS011;10959;51.328;7.322;2023-04-25T07:08:30;10.57;;;6.53;;
21593;SDS011;10959;51.328;7.322;2023-04-25T07:10:56;14.57;;;6.93;;
21593;SDS011;10959;51.328;7.322;2023-04-25T07:13:22;12.43;;;6.30;;
21593;SDS011;10959;51.328;7.322;2023-04-25T07:15:49;11.47;;;6.10;;
21593;SDS011;10959;51.328;7.322;2023-04-25T07:18:15;13.90;;;6.90;;
21593;SDS011;10959;51.328;7.322;2023-04-25T07:20:43;14.33;;;7.03;;
21593;SDS011;10959;51.328;7.322;2023-04-25T07:23:10;10.30;;;6.23;;
21593;SDS011;10959;51.328;7.322;2023-04-25T07:25:36;11.00;;;6.13;;
21593;SDS011;10959;51.328;7.322;2023-04-25T07:28:03;15.30;;;6.93;;
21593;SDS011;10959;51.328;7.322;2023-04-25T07:30:30;15.87;;;6.67;;
21593;SDS011;10959;51.328;7.322;2023-04-25T07:32:56;15.20;;;5.87;;
21593;SDS011;10959;51.328;7.322;2023-04-25T07:35:23;12.57;;;6.63;;
21593;SDS011;10959;51.328;7.322;2023-04-25T07:37:50;9.53;;;5.53;;
21593;SDS011;10959;51.328;7.322;2023-04-25T07:40:17;9.87;;;5.53;;
21593;SDS011;10959;51.328;7.322;2023-04-25T07:42:43;10.27;;;5.47;;
21593;SDS011;10959;51.328;7.322;2023-04-25T07:45:10;14.37;;;5.70;;
21593;SDS011;10959;51.328;7.322;2023-04-25T07:47:37;12.37;;;5.10;;
21593;SDS011;10959;51.328;7.322;2023-04-25T07:50:04;9.37;;;3.97;;
21593;SDS011;10959;51.328;7.322;2023-04-25T07:52:31;6.20;;;3.50;;
21593;SDS011;10959;51.328;7.322;2023-04-25T07:54:59;9.33;;;3.37;;
21593;SDS011;10959;51.328;7.322;2023-04-25T07:57:26;6.97;;;3.00;;
21593;SDS011;10959;51.328;7.322;2023-04-25T07:59:52;11.13;;;3.07;;
21593;SDS011;10959;51.328;7.322;2023-04-25T08:02:19;5.00;;;3.03;;
21593;SDS011;10959;51.328;7.322;2023-04-25T08:04:45;7.47;;;3.70;;
21593;SDS011;10959;51.328;7.322;2023-04-25T08:07:14;9.93;;;3.47;;
21593;SDS011;10959;51.328;7.322;2023-04-25T08:09:41;7.27;;;3.20;;
21593;SDS011;10959;51.328;7.322;2023-04-25T08:12:08;6.33;;;2.70;;
21593;SDS011;10959;51.328;7.322;2023-04-25T08:14:35;11.30;;;3.00;;
21593;SDS011;10959;51.328;7.322;2023-04-25T08:17:02;5.73;;;2.40;;
21593;SDS011;10959;51.328;7.322;2023-04-25T08:19:28;6.87;;;2.53;;
21593;SDS011;10959;51.328;7.322;2023-04-25T08:21:55;11.17;;;2.90;;
21593;SDS011;10959;51.328;7.322;2023-04-25T08:24:22;8.00;;;2.70;;
21593;SDS011;10959;51.328;7.322;2023-04-25T08:26:48;8.97;;;2.67;;
21593;SDS011;10959;51.328;7.322;2023-04-25T08:29:16;7.13;;;2.40;;
21593;SDS011;10959;51.328;7.322;2023-04-25T08:31:43;8.17;;;2.70;;
21593;SDS011;10959;51.328;7.322;2023-04-25T08:34:09;7.93;;;2.63;;
21593;SDS011;10959;51.328;7.322;2023-04-25T08:36:36;8.27;;;2.60;;
21593;SDS011;10959;51.328;7.322;2023-04-25T08:39:03;7.70;;;2.53;;
21593;SDS011;10959;51.328;7.322;2023-04-25T08:41:29;9.17;;;2.50;;
21593;SDS011;10959;51.328;7.322;2023-04-25T08:43:56;5.43;;;2.23;;
21593;SDS011;10959;51.328;7.322;2023-04-25T08:46:26;3.80;;;1.77;;
21593;SDS011;10959;51.328;7.322;2023-04-25T08:48:53;8.37;;;2.90;;
21593;SDS011;10959;51.328;7.322;2023-04-25T08:51:24;6.87;;;2.33;;
21593;SDS011;10959;51.328;7.322;2023-04-25T08:53:53;7.17;;;2.27;;
21593;SDS011;10959;51.328;7.322;2023-04-25T08:56:20;8.80;;;2.07;;
21593;SDS011;10959;51.328;7.322;2023-04-25T08:58:48;7.10;;;2.47;;
21593;SDS011;10959;51.328;7.322;2023-04-25T09:01:15;7.03;;;2.10;;
21593;SDS011;10959;51.328;7.322;2023-04-25T09:03:43;3.83;;;1.80;;
21593;SDS011;10959;51.328;7.322;2023-04-25T09:06:10;6.93;;;2.40;;
21593;SDS011;10959;51.328;7.322;2023-04-25T09:08:37;8.10;;;2.33;;
21593;SDS011;10959;51.328;7.322;2023-04-25T09:11:05;5.67;;;2.43;;
21593;SDS011;10959;51.328;7.322;2023-04-25T09:13:32;5.80;;;2.20;;
21593;SDS011;10959;51.328;7.322;2023-04-25T09:15:59;8.73;;;2.50;;
21593;SDS011;10959;51.328;7.322;2023-04-25T09:18:25;8.50;;;2.80;;
21593;SDS011;10959;51.328;7.322;2023-04-25T09:20:55;10.30;;;2.93;;
21593;SDS011;10959;51.328;7.322;2023-04-25T09:23:23;5.43;;;2.00;;
21593;SDS011;10959;51.328;7.322;2023-04-25T09:25:50;6.63;;;2.07;;
21593;SDS011;10959;51.328;7.322;2023-04-25T09:28:22;5.30;;;2.10;;
21593;SDS011;10959;51.328;7.322;2023-04-25T09:30:54;7.50;;;2.20;;
21593;SDS011;10959;51.328;7.322;2023-04-25T09:33:21;7.97;;;2.07;;
21593;SDS011;10959;51.328;7.322;2023-04-25T09:35:56;6.40;;;1.90;;
21593;SDS011;10959;51.328;7.322;2023-04-25T09:38:28;9.37;;;2.00;;
21593;SDS011;10959;51.328;7.322;2023-04-25T09:40:56;7.23;;;2.30;;
21593;SDS011;10959;51.328;7.322;2023-04-25T09:43:23;4.47;;;1.70;;
21593;SDS011;10959;51.328;7.322;2023-04-25T09:45:51;6.97;;;1.87;;
21593;SDS011;10959;51.328;7.322;2023-04-25T09:48:24;7.90;;;2.00;;
21593;SDS011;10959;51.328;7.322;2023-04-25T09:51:06;3.53;;;1.60;;
21593;SDS011;10959;51.328;7.322;2023-04-25T09:53:34;2.57;;;1.70;;
21593;SDS011;10959;51.328;7.322;2023-04-25T09:56:03;5.23;;;1.80;;
21593;SDS011;10959;51.328;7.322;2023-04-25T09:58:32;2.73;;;1.20;;
21593;SDS011;10959;51.328;7.322;2023-04-25T10:01:00;4.27;;;1.57;;
21593;SDS011;10959;51.328;7.322;2023-04-25T10:03:29;8.07;;;2.07;;
21593;SDS011;10959;51.328;7.322;2023-04-25T10:05:57;4.80;;;1.70;;
21593;SDS011;10959;51.328;7.322;2023-04-25T10:08:27;5.60;;;2.07;;
21593;SDS011;10959;51.328;7.322;2023-04-25T10:10:58;4.93;;;1.40;;
21593;SDS011;10959;51.328;7.322;2023-04-25T10:13:26;5.60;;;1.40;;
21593;SDS011;10959;51.328;7.322;2023-04-25T10:15:54;4.13;;;1.60;;
21593;SDS011;10959;51.328;7.322;2023-04-25T10:18:22;5.30;;;1.70;;
21593;SDS011;10959;51.328;7.322;2023-04-25T10:20:50;3.23;;;1.57;;
21593;SDS011;10959;51.328;7.322;2023-04-25T10:23:16;5.57;;;1.73;;
21593;SDS011;10959;51.328;7.322;2023-04-25T10:25:44;6.00;;;2.13;;
21593;SDS011;10959;51.328;7.322;2023-04-25T10:28:11;8.40;;;1.63;;
21593;SDS011;10959;51.328;7.322;2023-04-25T10:30:38;6.07;;;1.80;;
21593;SDS011;10959;51.328;7.322;2023-04-25T10:33:28;7.10;;;1.90;;
21593;SDS011;10959;51.328;7.322;2023-04-25T10:35:58;3.63;;;1.43;;
21593;SDS011;10959;51.328;7.322;2023-04-25T10:38:24;3.97;;;1.33;;
21593;SDS011;10959;51.328;7.322;2023-04-25T10:41:03;5.07;;;1.30;;
21593;SDS011;10959;51.328;7.322;2023-04-25T10:43:34;4.87;;;1.57;;
21593;SDS011;10959;51.328;7.322;2023-04-25T10:46:02;2.87;;;1.40;;
21593;SDS011;10959;51.328;7.322;2023-04-25T10:48:38;4.87;;;1.73;;
21593;SDS011;10959;51.328;7.322;2023-04-25T10:51:11;5.13;;;1.57;;
21593;SDS011;10959;51.328;7.322;2023-04-25T10:53:43;4.93;;;2.00;;
21593;SDS011;10959;51.328;7.322;2023-04-25T10:56:12;5.07;;;1.90;;
21593;SDS011;10959;51.328;7.322;2023-04-25T10:58:43;9.07;;;2.00;;
21593;SDS011;10959;51.328;7.322;2023-04-25T11:01:11;5.47;;;1.97;;
21593;SDS011;10959;51.328;7.322;2023-04-25T11:03:39;4.00;;;1.83;;
21593;SDS011;10959;51.328;7.322;2023-04-25T11:06:09;4.83;;;1.63;;
21593;SDS011;10959;51.328;7.322;2023-04-25T11:08:47;3.57;;;1.57;;
21593;SDS011;10959;51.328;7.322;2023-04-25T11:11:16;4.90;;;1.57;;
21593;SDS011;10959;51.328;7.322;2023-04-25T11:13:42;3.40;;;1.33;;
21593;SDS011;10959;51.328;7.322;2023-04-25T11:16:09;3.43;;;1.60;;
21593;SDS011;10959;51.328;7.322;2023-04-25T11:18:36;5.00;;;1.77;;
21593;SDS011;10959;51.328;7.322;2023-04-25T11:21:03;5.97;;;1.80;;
21593;SDS011;10959;51.328;7.322;2023-04-25T11:23:29;5.10;;;1.53;;
21593;SDS011;10959;51.328;7.322;2023-04-25T11:25:56;6.00;;;1.50;;
21593;SDS011;10959;51.328;7.322;2023-04-25T11:28:24;3.90;;;1.47;;
21593;SDS011;10959;51.328;7.322;2023-04-25T11:30:50;2.80;;;1.30;;
21593;SDS011;10959;51.328;7.322;2023-04-25T11:33:17;4.53;;;1.47;;
21593;SDS011;10959;51.328;7.322;2023-04-25T11:35:44;3.10;;;1.40;;
21593;SDS011;10959;51.328;7.322;2023-04-25T11:38:10;5.03;;;1.40;;
21593;SDS011;10959;51.328;7.322;2023-04-25T11:40:36;6.27;;;1.80;;
21593;SDS011;10959;51.328;7.322;2023-04-25T11:43:03;4.33;;;1.70;;
21593;SDS011;10959;51.328;7.322;2023-04-25T11:45:31;4.83;;;1.87;;
21593;SDS011;10959;51.328;7.322;2023-04-25T11:47:57;4.80;;;1.87;;
21593;SDS011;10959;51.328;7.322;2023-04-25T11:50:23;3.20;;;1.63;;
21593;SDS011;10959;51.328;7.322;2023-04-25T11:52:50;5.90;;;2.13;;
21593;SDS011;10959;51.328;7.322;2023-04-25T11:55:17;4.50;;;1.80;;
21593;SDS011;10959;51.328;7.322;2023-04-25T11:57:46;7.93;;;2.07;;
21593;SDS011;10959;51.328;7.322;2023-04-25T12:00:15;5.77;;;2.47;;
21593;SDS011;10959;51.328;7.322;2023-04-25T12:02:45;4.10;;;1.67;;
21593;SDS011;10959;51.328;7.322;2023-04-25T12:05:13;5.47;;;1.73;;
21593;SDS011;10959;51.328;7.322;2023-04-25T12:07:41;4.80;;;1.73;;
21593;SDS011;10959;51.328;7.322;2023-04-25T12:10:08;3.50;;;1.70;;
21593;SDS011;10959;51.328;7.322;2023-04-25T12:12:37;4.83;;;1.77;;
21593;SDS011;10959;51.328;7.322;2023-04-25T12:15:11;3.67;;;1.90;;
21593;SDS011;10959;51.328;7.322;2023-04-25T12:17:40;3.70;;;1.70;;
21593;SDS011;10959;51.328;7.322;2023-04-25T12:20:09;3.83;;;1.60;;
21593;SDS011;10959;51.328;7.322;2023-04-25T12:22:37;3.37;;;1.43;;
21593;SDS011;10959;51.328;7.322;2023-04-25T12:25:03;2.77;;;1.43;;
21593;SDS011;10959;51.328;7.322;2023-04-25T12:27:31;3.17;;;1.30;;
21593;SDS011;10959;51.328;7.322;2023-04-25T12:29:58;2.97;;;1.30;;
21593;SDS011;10959;51.328;7.322;2023-04-25T12:32:25;3.90;;;1.30;;
21593;SDS011;10959;51.328;7.322;2023-04-25T12:34:52;3.67;;;1.30;;
21593;SDS011;10959;51.328;7.322;2023-04-25T12:37:19;2.97;;;1.33;;
21593;SDS011;10959;51.328;7.322;2023-04-25T12:39:46;3.20;;;1.50;;
21593;SDS011;10959;51.328;7.322;2023-04-25T12:42:12;3.13;;;1.10;;
21593;SDS011;10959;51.328;7.322;2023-04-25T12:44:39;4.53;;;1.77;;
21593;SDS011;10959;51.328;7.322;2023-04-25T12:47:06;2.13;;;1.20;;
21593;SDS011;10959;51.328;7.322;2023-04-25T12:49:32;3.83;;;1.50;;
21593;SDS011;10959;51.328;7.322;2023-04-25T12:51:59;3.43;;;1.37;;
21593;SDS011;10959;51.328;7.322;2023-04-25T12:54:26;4.43;;;1.77;;
21593;SDS011;10959;51.328;7.322;2023-04-25T12:56:53;5.07;;;2.00;;
21593;SDS011;10959;51.328;7.322;2023-04-25T12:59:19;4.23;;;1.60;;
21593;SDS011;10959;51.328;7.322;2023-04-25T13:01:46;6.17;;;1.67;;
21593;SDS011;10959;51.328;7.322;2023-04-25T13:04:13;5.33;;;1.57;;
21593;SDS011;10959;51.328;7.322;2023-04-25T13:06:39;4.07;;;1.40;;
21593;SDS011;10959;51.328;7.322;2023-04-25T13:09:06;3.93;;;1.30;;
21593;SDS011;10959;51.328;7.322;2023-04-25T13:11:34;5.47;;;2.07;;
21593;SDS011;10959;51.328;7.322;2023-04-25T13:14:01;3.47;;;1.47;;
21593;SDS011;10959;51.328;7.322;2023-04-25T13:16:28;2.57;;;1.40;;
21593;SDS011;10959;51.328;7.322;2023-04-25T13:18:54;3.47;;;1.40;;
21593;SDS011;10959;51.328;7.322;2023-04-25T13:21:21;5.63;;;1.53;;
21593;SDS011;10959;51.328;7.322;2023-04-25T13:23:47;3.03;;;1.57;;
21593;SDS011;10959;51.328;7.322;2023-04-25T13:26:13;4.63;;;1.87;;
21593;SDS011;10959;51.328;7.322;2023-04-25T13:28:42;3.57;;;1.73;;
21593;SDS011;10959;51.328;7.322;2023-04-25T13:31:08;3.13;;;1.43;;
21593;SDS011;10959;51.328;7.322;2023-04-25T13:33:34;4.97;;;1.43;;
21593;SDS011;10959;51.328;7.322;2023-04-25T13:36:01;4.40;;;1.40;;
21593;SDS011;10959;51.328;7.322;2023-04-25T13:38:28;3.20;;;1.47;;
21593;SDS011;10959;51.328;7.322;2023-04-25T13:40:54;2.67;;;1.27;;
21593;SDS011;10959;51.328;7.322;2023-04-25T13:43:21;4.70;;;1.20;;
21593;SDS011;10959;51.328;7.322;2023-04-25T13:45:49;3.50;;;1.10;;
21593;SDS011;10959;51.328;7.322;2023-04-25T13:48:16;3.07;;;1.50;;
21593;SDS011;10959;51.328;7.322;2023-04-25T13:50:43;4.13;;;1.20;;
21593;SDS011;10959;51.328;7.322;2023-04-25T13:53:10;2.70;;;1.40;;
21593;SDS011;10959;51.328;7.322;2023-04-25T13:55:37;3.07;;;1.00;;
21593;SDS011;10959;51.328;7.322;2023-04-25T13:58:03;4.23;;;1.30;;
21593;SDS011;10959;51.328;7.322;2023-04-25T14:00:32;4.13;;;1.50;;
21593;SDS011;10959;51.328;7.322;2023-04-25T14:03:01;2.77;;;1.60;;
21593;SDS011;10959;51.328;7.322;2023-04-25T14:05:31;2.23;;;1.20;;
21593;SDS011;10959;51.328;7.322;2023-04-25T14:08:00;3.57;;;1.60;;
21593;SDS011;10959;51.328;7.322;2023-04-25T14:10:26;4.23;;;1.43;;
21593;SDS011;10959;51.328;7.322;2023-04-25T14:12:52;4.60;;;1.77;;
21593;SDS011;10959;51.328;7.322;2023-04-25T14:15:19;4.53;;;1.33;;
21593;SDS011;10959;51.328;7.322;2023-04-25T14:17:45;5.33;;;1.67;;
21593;SDS011;10959;51.328;7.322;2023-04-25T14:20:14;3.77;;;1.20;;
21593;SDS011;10959;51.328;7.322;2023-04-25T14:22:45;3.53;;;1.30;;
21593;SDS011;10959;51.328;7.322;2023-04-25T14:25:11;2.63;;;1.10;;
21593;SDS011;10959;51.328;7.322;2023-04-25T14:27:38;3.10;;;1.17;;
21593;SDS011;10959;51.328;7.322;2023-04-25T14:30:05;4.13;;;1.30;;
21593;SDS011;10959;51.328;7.322;2023-04-25T14:32:34;3.20;;;1.20;;
21593;SDS011;10959;51.328;7.322;2023-04-25T14:35:00;6.40;;;1.33;;
21593;SDS011;10959;51.328;7.322;2023-04-25T14:37:28;3.90;;;1.03;;
21593;SDS011;10959;51.328;7.322;2023-04-25T14:39:54;2.67;;;1.03;;
21593;SDS011;10959;51.328;7.322;2023-04-25T14:42:21;2.50;;;1.20;;
21593;SDS011;10959;51.328;7.322;2023-04-25T14:44:47;3.63;;;1.00;;